sensor_id;sensor_type;location;lat;lon;timestamp;P1;durP1;ratioP1;P2;durP2;ratioP2
2992;SDS011;1506;48.932;9.478;2023-02-28T00:00:45;2.73;;;2.63;;
2992;SDS011;1506;48.932;9.478;2023-02-28T00:03:13;3.90;;;2.80;;
2992;SDS011;1506;48.932;9.478;2023-02-28T00:05:40;2.50;;;2.40;;
2992;SDS011;1506;48.932;9.478;2023-02-28T00:08:08;2.90;;;2.70;;
2992;SDS011;1506;48.932;9.478;2023-02-28T00:10:36;2.70;;;2.60;;
2992;SDS011;1506;48.932;9.478;2023-02-28T00:13:05;3.17;;;2.97;;
2992;SDS011;1506;48.932;9.478;2023-02-28T00:15:32;3.87;;;3.53;;
2992;SDS011;1506;48.932;9.478;2023-02-28T00:18:00;2.80;;;2.60;;
2992;SDS011;1506;48.932;9.478;2023-02-28T00:20:28;3.27;;;3.17;;
2992;SDS011;1506;48.932;9.478;2023-02-28T00:22:55;3.50;;;3.20;;
2992;SDS011;1506;48.932;9.478;2023-02-28T00:25:23;4.00;;;3.80;;
2992;SDS011;1506;48.932;9.478;2023-02-28T00:27:52;3.30;;;2.97;;
2992;SDS011;1506;48.932;9.478;2023-02-28T00:30:21;3.47;;;2.90;;
2992;SDS011;1506;48.932;9.478;2023-02-28T00:32:49;3.83;;;3.30;;
2992;SDS011;1506;48.932;9.478;2023-02-28T00:35:17;13.40;;;4.00;;
2992;SDS011;1506;48.932;9.478;2023-02-28T00:37:45;3.67;;;3.37;;
2992;SDS011;1506;48.932;9.478;2023-02-28T00:40:12;3.10;;;2.90;;
2992;SDS011;1506;48.932;9.478;2023-02-28T00:42:39;3.70;;;3.40;;
2992;SDS011;1506;48.932;9.478;2023-02-28T00:45:07;4.77;;;4.47;;
2992;SDS011;1506;48.932;9.478;2023-02-28T00:47:37;8.33;;;2.87;;
2992;SDS011;1506;48.932;9.478;2023-02-28T00:50:04;4.73;;;4.23;;
2992;SDS011;1506;48.932;9.478;2023-02-28T00:52:33;4.43;;;3.73;;
2992;SDS011;1506;48.932;9.478;2023-02-28T00:55:00;4.30;;;3.90;;
2992;SDS011;1506;48.932;9.478;2023-02-28T00:57:27;6.10;;;4.60;;
2992;SDS011;1506;48.932;9.478;2023-02-28T00:59:55;4.47;;;4.20;;
2992;SDS011;1506;48.932;9.478;2023-02-28T01:02:22;11.33;;;4.03;;
2992;SDS011;1506;48.932;9.478;2023-02-28T01:04:51;4.90;;;3.40;;
2992;SDS011;1506;48.932;9.478;2023-02-28T01:07:19;4.43;;;4.03;;
2992;SDS011;1506;48.932;9.478;2023-02-28T01:09:46;3.83;;;3.43;;
2992;SDS011;1506;48.932;9.478;2023-02-28T01:12:13;3.97;;;3.70;;
2992;SDS011;1506;48.932;9.478;2023-02-28T01:14:41;4.40;;;3.80;;
2992;SDS011;1506;48.932;9.478;2023-02-28T01:17:09;4.13;;;3.73;;
2992;SDS011;1506;48.932;9.478;2023-02-28T01:19:36;4.70;;;4.40;;
2992;SDS011;1506;48.932;9.478;2023-02-28T01:22:04;5.50;;;5.00;;
2992;SDS011;1506;48.932;9.478;2023-02-28T01:24:33;5.73;;;4.17;;
2992;SDS011;1506;48.932;9.478;2023-02-28T01:27:01;7.17;;;4.87;;
2992;SDS011;1506;48.932;9.478;2023-02-28T01:29:28;4.90;;;3.83;;
2992;SDS011;1506;48.932;9.478;2023-02-28T01:31:55;4.33;;;4.03;;
2992;SDS011;1506;48.932;9.478;2023-02-28T01:34:25;5.63;;;4.10;;
2992;SDS011;1506;48.932;9.478;2023-02-28T01:36:53;6.43;;;4.07;;
2992;SDS011;1506;48.932;9.478;2023-02-28T01:39:20;3.33;;;3.03;;
2992;SDS011;1506;48.932;9.478;2023-02-28T01:41:48;4.10;;;3.90;;
2992;SDS011;1506;48.932;9.478;2023-02-28T01:47:22;4.03;;;3.73;;
2992;SDS011;1506;48.932;9.478;2023-02-28T01:49:51;4.77;;;4.57;;
2992;SDS011;1506;48.932;9.478;2023-02-28T01:52:18;4.27;;;3.97;;
2992;SDS011;1506;48.932;9.478;2023-02-28T01:54:47;10.30;;;4.90;;
2992;SDS011;1506;48.932;9.478;2023-02-28T01:57:20;4.13;;;3.83;;
2992;SDS011;1506;48.932;9.478;2023-02-28T01:59:52;6.80;;;4.63;;
2992;SDS011;1506;48.932;9.478;2023-02-28T02:02:25;4.40;;;3.97;;
2992;SDS011;1506;48.932;9.478;2023-02-28T02:05:15;4.20;;;3.87;;
2992;SDS011;1506;48.932;9.478;2023-02-28T02:07:49;5.20;;;4.13;;
2992;SDS011;1506;48.932;9.478;2023-02-28T02:10:24;7.70;;;4.50;;
2992;SDS011;1506;48.932;9.478;2023-02-28T02:18:33;4.60;;;4.30;;
2992;SDS011;1506;48.932;9.478;2023-02-28T02:36:53;10.23;;;4.20;;
2992;SDS011;1506;48.932;9.478;2023-02-28T02:39:35;7.20;;;3.70;;
2992;SDS011;1506;48.932;9.478;2023-02-28T02:42:09;5.43;;;5.03;;
2992;SDS011;1506;48.932;9.478;2023-02-28T02:44:44;6.00;;;4.60;;
2992;SDS011;1506;48.932;9.478;2023-02-28T02:47:17;12.07;;;4.63;;
2992;SDS011;1506;48.932;9.478;2023-02-28T02:49:48;5.73;;;5.20;;
2992;SDS011;1506;48.932;9.478;2023-02-28T02:52:18;4.90;;;4.50;;
2992;SDS011;1506;48.932;9.478;2023-02-28T02:54:48;5.43;;;4.53;;
2992;SDS011;1506;48.932;9.478;2023-02-28T02:57:35;5.60;;;5.03;;
2992;SDS011;1506;48.932;9.478;2023-02-28T03:00:09;4.90;;;4.50;;
2992;SDS011;1506;48.932;9.478;2023-02-28T03:02:37;4.30;;;3.90;;
2992;SDS011;1506;48.932;9.478;2023-02-28T03:05:07;5.33;;;4.93;;
2992;SDS011;1506;48.932;9.478;2023-02-28T03:07:39;5.73;;;4.97;;
2992;SDS011;1506;48.932;9.478;2023-02-28T03:12:59;7.50;;;5.43;;
2992;SDS011;1506;48.932;9.478;2023-02-28T03:21:34;5.70;;;5.20;;
2992;SDS011;1506;48.932;9.478;2023-02-28T03:24:10;6.50;;;4.73;;
2992;SDS011;1506;48.932;9.478;2023-02-28T03:26:52;4.90;;;4.50;;
2992;SDS011;1506;48.932;9.478;2023-02-28T03:29:39;4.90;;;4.50;;
2992;SDS011;1506;48.932;9.478;2023-02-28T03:35:26;6.20;;;5.50;;
2992;SDS011;1506;48.932;9.478;2023-02-28T03:38:03;8.93;;;4.80;;
2992;SDS011;1506;48.932;9.478;2023-02-28T03:40:55;4.53;;;4.23;;
2992;SDS011;1506;48.932;9.478;2023-02-28T03:43:27;4.87;;;4.33;;
2992;SDS011;1506;48.932;9.478;2023-02-28T03:45:56;5.90;;;5.30;;
2992;SDS011;1506;48.932;9.478;2023-02-28T03:48:27;4.87;;;4.47;;
2992;SDS011;1506;48.932;9.478;2023-02-28T03:51:02;6.80;;;4.67;;
2992;SDS011;1506;48.932;9.478;2023-02-28T03:53:35;7.60;;;5.80;;
2992;SDS011;1506;48.932;9.478;2023-02-28T03:56:13;6.90;;;6.20;;
2992;SDS011;1506;48.932;9.478;2023-02-28T04:01:34;4.40;;;4.10;;
2992;SDS011;1506;48.932;9.478;2023-02-28T04:04:03;6.10;;;5.07;;
2992;SDS011;1506;48.932;9.478;2023-02-28T04:06:31;5.40;;;4.20;;
2992;SDS011;1506;48.932;9.478;2023-02-28T04:08:59;5.13;;;3.87;;
2992;SDS011;1506;48.932;9.478;2023-02-28T04:11:32;9.27;;;6.97;;
2992;SDS011;1506;48.932;9.478;2023-02-28T04:14:04;5.37;;;4.97;;
2992;SDS011;1506;48.932;9.478;2023-02-28T04:16:32;10.60;;;6.33;;
2992;SDS011;1506;48.932;9.478;2023-02-28T04:19:04;5.77;;;5.17;;
2992;SDS011;1506;48.932;9.478;2023-02-28T04:21:38;5.77;;;5.37;;
2992;SDS011;1506;48.932;9.478;2023-02-28T04:24:24;9.57;;;6.10;;
2992;SDS011;1506;48.932;9.478;2023-02-28T04:26:54;5.33;;;4.90;;
2992;SDS011;1506;48.932;9.478;2023-02-28T04:29:26;7.80;;;5.60;;
2992;SDS011;1506;48.932;9.478;2023-02-28T04:31:55;7.10;;;6.40;;
2992;SDS011;1506;48.932;9.478;2023-02-28T04:34:27;8.37;;;5.57;;
2992;SDS011;1506;48.932;9.478;2023-02-28T04:36:56;5.57;;;4.93;;
2992;SDS011;1506;48.932;9.478;2023-02-28T04:39:40;5.03;;;4.73;;
2992;SDS011;1506;48.932;9.478;2023-02-28T04:42:08;8.10;;;5.80;;
2992;SDS011;1506;48.932;9.478;2023-02-28T04:44:36;6.30;;;5.70;;
2992;SDS011;1506;48.932;9.478;2023-02-28T04:47:03;8.53;;;5.83;;
2992;SDS011;1506;48.932;9.478;2023-02-28T04:49:31;6.10;;;5.60;;
2992;SDS011;1506;48.932;9.478;2023-02-28T04:51:58;6.53;;;5.93;;
2992;SDS011;1506;48.932;9.478;2023-02-28T04:54:26;6.57;;;5.90;;
2992;SDS011;1506;48.932;9.478;2023-02-28T04:56:54;6.47;;;5.90;;
2992;SDS011;1506;48.932;9.478;2023-02-28T04:59:22;5.63;;;5.23;;
2992;SDS011;1506;48.932;9.478;2023-02-28T05:01:49;7.53;;;5.60;;
2992;SDS011;1506;48.932;9.478;2023-02-28T05:04:16;6.40;;;5.80;;
2992;SDS011;1506;48.932;9.478;2023-02-28T05:06:44;10.30;;;6.70;;
2992;SDS011;1506;48.932;9.478;2023-02-28T05:09:11;9.20;;;6.83;;
2992;SDS011;1506;48.932;9.478;2023-02-28T05:11:39;6.50;;;5.10;;
2992;SDS011;1506;48.932;9.478;2023-02-28T05:14:10;8.50;;;5.40;;
2992;SDS011;1506;48.932;9.478;2023-02-28T05:16:38;9.47;;;5.40;;
2992;SDS011;1506;48.932;9.478;2023-02-28T05:19:06;6.03;;;5.40;;
2992;SDS011;1506;48.932;9.478;2023-02-28T05:21:38;6.90;;;5.63;;
2992;SDS011;1506;48.932;9.478;2023-02-28T05:24:23;8.63;;;5.87;;
2992;SDS011;1506;48.932;9.478;2023-02-28T05:26:51;6.00;;;5.50;;
2992;SDS011;1506;48.932;9.478;2023-02-28T05:29:20;10.27;;;6.50;;
2992;SDS011;1506;48.932;9.478;2023-02-28T05:31:47;8.20;;;6.50;;
2992;SDS011;1506;48.932;9.478;2023-02-28T05:34:15;10.70;;;7.33;;
2992;SDS011;1506;48.932;9.478;2023-02-28T05:36:42;11.27;;;6.37;;
2992;SDS011;1506;48.932;9.478;2023-02-28T05:39:10;12.23;;;8.17;;
2992;SDS011;1506;48.932;9.478;2023-02-28T05:41:40;6.03;;;5.43;;
2992;SDS011;1506;48.932;9.478;2023-02-28T05:44:08;10.20;;;7.13;;
2992;SDS011;1506;48.932;9.478;2023-02-28T05:46:36;11.70;;;6.13;;
2992;SDS011;1506;48.932;9.478;2023-02-28T05:49:04;11.00;;;7.20;;
2992;SDS011;1506;48.932;9.478;2023-02-28T05:51:32;9.13;;;5.80;;
2992;SDS011;1506;48.932;9.478;2023-02-28T05:54:00;7.67;;;5.83;;
2992;SDS011;1506;48.932;9.478;2023-02-28T05:56:28;6.90;;;6.13;;
2992;SDS011;1506;48.932;9.478;2023-02-28T05:58:56;6.83;;;6.23;;
2992;SDS011;1506;48.932;9.478;2023-02-28T06:01:26;9.80;;;6.50;;
2992;SDS011;1506;48.932;9.478;2023-02-28T06:03:58;6.33;;;5.70;;
2992;SDS011;1506;48.932;9.478;2023-02-28T06:06:27;7.43;;;6.60;;
2992;SDS011;1506;48.932;9.478;2023-02-28T06:08:56;11.03;;;6.63;;
2992;SDS011;1506;48.932;9.478;2023-02-28T06:11:23;8.03;;;6.77;;
2992;SDS011;1506;48.932;9.478;2023-02-28T06:13:55;6.83;;;6.10;;
2992;SDS011;1506;48.932;9.478;2023-02-28T06:16:23;8.43;;;7.37;;
2992;SDS011;1506;48.932;9.478;2023-02-28T06:18:51;5.83;;;5.30;;
2992;SDS011;1506;48.932;9.478;2023-02-28T06:21:22;7.27;;;6.57;;
2992;SDS011;1506;48.932;9.478;2023-02-28T06:23:49;7.13;;;5.97;;
2992;SDS011;1506;48.932;9.478;2023-02-28T06:26:17;6.67;;;6.07;;
2992;SDS011;1506;48.932;9.478;2023-02-28T06:28:45;8.43;;;6.27;;
2992;SDS011;1506;48.932;9.478;2023-02-28T06:31:14;5.97;;;5.57;;
2992;SDS011;1506;48.932;9.478;2023-02-28T06:33:43;7.30;;;6.73;;
2992;SDS011;1506;48.932;9.478;2023-02-28T06:36:12;8.10;;;6.90;;
2992;SDS011;1506;48.932;9.478;2023-02-28T06:38:40;7.50;;;6.73;;
2992;SDS011;1506;48.932;9.478;2023-02-28T06:41:09;7.00;;;6.50;;
2992;SDS011;1506;48.932;9.478;2023-02-28T06:43:37;8.63;;;6.40;;
2992;SDS011;1506;48.932;9.478;2023-02-28T06:46:07;8.73;;;7.33;;
2992;SDS011;1506;48.932;9.478;2023-02-28T06:48:36;7.30;;;5.40;;
2992;SDS011;1506;48.932;9.478;2023-02-28T06:51:08;11.60;;;7.47;;
2992;SDS011;1506;48.932;9.478;2023-02-28T06:53:48;6.60;;;6.00;;
2992;SDS011;1506;48.932;9.478;2023-02-28T06:56:16;7.17;;;6.67;;
2992;SDS011;1506;48.932;9.478;2023-02-28T06:58:48;7.50;;;5.30;;
2992;SDS011;1506;48.932;9.478;2023-02-28T07:01:16;8.30;;;6.80;;
2992;SDS011;1506;48.932;9.478;2023-02-28T07:03:45;11.20;;;6.70;;
2992;SDS011;1506;48.932;9.478;2023-02-28T07:06:12;11.67;;;6.27;;
2992;SDS011;1506;48.932;9.478;2023-02-28T07:08:40;7.60;;;6.57;;
2992;SDS011;1506;48.932;9.478;2023-02-28T07:11:07;8.33;;;7.47;;
2992;SDS011;1506;48.932;9.478;2023-02-28T07:13:35;12.07;;;8.00;;
2992;SDS011;1506;48.932;9.478;2023-02-28T07:16:03;8.50;;;7.60;;
2992;SDS011;1506;48.932;9.478;2023-02-28T07:18:32;13.67;;;7.03;;
2992;SDS011;1506;48.932;9.478;2023-02-28T07:21:03;8.80;;;7.27;;
2992;SDS011;1506;48.932;9.478;2023-02-28T07:23:32;17.43;;;8.50;;
2992;SDS011;1506;48.932;9.478;2023-02-28T07:26:00;10.03;;;7.27;;
2992;SDS011;1506;48.932;9.478;2023-02-28T07:28:27;11.37;;;7.67;;
2992;SDS011;1506;48.932;9.478;2023-02-28T07:30:55;7.67;;;6.80;;
2992;SDS011;1506;48.932;9.478;2023-02-28T07:33:22;13.43;;;8.50;;
2992;SDS011;1506;48.932;9.478;2023-02-28T07:35:50;7.87;;;7.07;;
2992;SDS011;1506;48.932;9.478;2023-02-28T07:38:17;10.80;;;7.30;;
2992;SDS011;1506;48.932;9.478;2023-02-28T07:40:45;11.17;;;7.63;;
2992;SDS011;1506;48.932;9.478;2023-02-28T07:43:12;8.80;;;7.33;;
2992;SDS011;1506;48.932;9.478;2023-02-28T07:45:39;18.80;;;7.77;;
2992;SDS011;1506;48.932;9.478;2023-02-28T07:48:07;11.10;;;7.57;;
2992;SDS011;1506;48.932;9.478;2023-02-28T07:50:36;11.90;;;7.90;;
2992;SDS011;1506;48.932;9.478;2023-02-28T07:53:04;7.97;;;7.20;;
2992;SDS011;1506;48.932;9.478;2023-02-28T07:55:31;9.50;;;7.63;;
2992;SDS011;1506;48.932;9.478;2023-02-28T07:57:59;12.37;;;8.63;;
2992;SDS011;1506;48.932;9.478;2023-02-28T08:00:26;8.73;;;7.83;;
2992;SDS011;1506;48.932;9.478;2023-02-28T08:02:55;9.77;;;8.77;;
2992;SDS011;1506;48.932;9.478;2023-02-28T08:05:22;9.43;;;7.97;;
2992;SDS011;1506;48.932;9.478;2023-02-28T08:07:50;15.40;;;7.43;;
2992;SDS011;1506;48.932;9.478;2023-02-28T08:10:17;11.10;;;8.50;;
2992;SDS011;1506;48.932;9.478;2023-02-28T08:12:45;14.73;;;8.10;;
2992;SDS011;1506;48.932;9.478;2023-02-28T08:15:12;11.10;;;9.10;;
2992;SDS011;1506;48.932;9.478;2023-02-28T08:17:39;11.67;;;7.43;;
2992;SDS011;1506;48.932;9.478;2023-02-28T08:20:07;10.33;;;8.77;;
2992;SDS011;1506;48.932;9.478;2023-02-28T08:22:36;12.03;;;9.90;;
2992;SDS011;1506;48.932;9.478;2023-02-28T08:25:04;10.23;;;8.20;;
2992;SDS011;1506;48.932;9.478;2023-02-28T08:27:33;10.93;;;9.20;;
2992;SDS011;1506;48.932;9.478;2023-02-28T08:30:02;10.93;;;8.80;;
2992;SDS011;1506;48.932;9.478;2023-02-28T08:32:29;14.00;;;8.57;;
2992;SDS011;1506;48.932;9.478;2023-02-28T08:34:58;13.77;;;8.57;;
2992;SDS011;1506;48.932;9.478;2023-02-28T08:37:25;8.50;;;7.70;;
2992;SDS011;1506;48.932;9.478;2023-02-28T08:39:53;18.57;;;10.00;;
2992;SDS011;1506;48.932;9.478;2023-02-28T08:42:22;13.57;;;9.90;;
2992;SDS011;1506;48.932;9.478;2023-02-28T08:44:49;15.07;;;9.53;;
2992;SDS011;1506;48.932;9.478;2023-02-28T08:47:17;15.50;;;9.93;;
2992;SDS011;1506;48.932;9.478;2023-02-28T08:49:44;9.07;;;8.17;;
2992;SDS011;1506;48.932;9.478;2023-02-28T08:52:12;9.20;;;7.93;;
2992;SDS011;1506;48.932;9.478;2023-02-28T08:54:39;10.10;;;8.37;;
2992;SDS011;1506;48.932;9.478;2023-02-28T08:57:07;14.57;;;9.03;;
2992;SDS011;1506;48.932;9.478;2023-02-28T08:59:34;18.33;;;10.07;;
2992;SDS011;1506;48.932;9.478;2023-02-28T09:02:02;12.00;;;9.27;;
2992;SDS011;1506;48.932;9.478;2023-02-28T09:04:29;15.80;;;9.30;;
2992;SDS011;1506;48.932;9.478;2023-02-28T09:06:57;15.40;;;8.87;;
2992;SDS011;1506;48.932;9.478;2023-02-28T09:09:24;10.63;;;8.03;;
2992;SDS011;1506;48.932;9.478;2023-02-28T09:11:51;10.20;;;8.73;;
2992;SDS011;1506;48.932;9.478;2023-02-28T09:14:21;10.63;;;7.47;;
2992;SDS011;1506;48.932;9.478;2023-02-28T09:16:48;13.00;;;7.23;;
2992;SDS011;1506;48.932;9.478;2023-02-28T09:19:16;20.83;;;9.50;;
2992;SDS011;1506;48.932;9.478;2023-02-28T09:21:43;14.63;;;7.90;;
2992;SDS011;1506;48.932;9.478;2023-02-28T09:24:10;10.70;;;8.57;;
2992;SDS011;1506;48.932;9.478;2023-02-28T09:26:40;8.57;;;7.70;;
2992;SDS011;1506;48.932;9.478;2023-02-28T09:29:28;16.10;;;8.70;;
2992;SDS011;1506;48.932;9.478;2023-02-28T09:31:55;9.47;;;8.37;;
2992;SDS011;1506;48.932;9.478;2023-02-28T09:34:25;16.00;;;8.07;;
2992;SDS011;1506;48.932;9.478;2023-02-28T09:36:53;9.27;;;8.17;;
2992;SDS011;1506;48.932;9.478;2023-02-28T09:39:21;11.80;;;8.37;;
2992;SDS011;1506;48.932;9.478;2023-02-28T09:41:50;10.73;;;9.30;;
2992;SDS011;1506;48.932;9.478;2023-02-28T09:47:45;7.63;;;6.97;;
2992;SDS011;1506;48.932;9.478;2023-02-28T09:49:57;7.97;;;6.87;;
2992;SDS011;1506;48.932;9.478;2023-02-28T09:52:42;11.30;;;8.53;;
2992;SDS011;1506;48.932;9.478;2023-02-28T09:55:27;13.53;;;8.80;;
2992;SDS011;1506;48.932;9.478;2023-02-28T09:58:08;12.70;;;9.67;;
2992;SDS011;1506;48.932;9.478;2023-02-28T10:00:55;15.20;;;10.53;;
2992;SDS011;1506;48.932;9.478;2023-02-28T10:03:39;15.97;;;9.07;;
2992;SDS011;1506;48.932;9.478;2023-02-28T10:06:14;11.90;;;8.57;;
2992;SDS011;1506;48.932;9.478;2023-02-28T10:11:32;12.10;;;8.80;;
2992;SDS011;1506;48.932;9.478;2023-02-28T10:14:10;12.77;;;9.10;;
2992;SDS011;1506;48.932;9.478;2023-02-28T10:16:48;9.20;;;8.20;;
2992;SDS011;1506;48.932;9.478;2023-02-28T10:22:27;13.07;;;10.63;;
2992;SDS011;1506;48.932;9.478;2023-02-28T10:25:01;11.57;;;8.77;;
2992;SDS011;1506;48.932;9.478;2023-02-28T10:27:32;16.07;;;10.67;;
2992;SDS011;1506;48.932;9.478;2023-02-28T10:30:00;15.37;;;9.80;;
2992;SDS011;1506;48.932;9.478;2023-02-28T10:32:29;10.80;;;7.90;;
2992;SDS011;1506;48.932;9.478;2023-02-28T10:37:49;7.60;;;6.93;;
2992;SDS011;1506;48.932;9.478;2023-02-28T10:42:56;13.23;;;9.90;;
2992;SDS011;1506;48.932;9.478;2023-02-28T10:45:27;12.00;;;8.90;;
2992;SDS011;1506;48.932;9.478;2023-02-28T10:48:01;10.80;;;8.70;;
2992;SDS011;1506;48.932;9.478;2023-02-28T10:50:37;10.10;;;9.27;;
2992;SDS011;1506;48.932;9.478;2023-02-28T10:58:51;7.30;;;6.70;;
2992;SDS011;1506;48.932;9.478;2023-02-28T11:01:37;16.50;;;10.40;;
2992;SDS011;1506;48.932;9.478;2023-02-28T11:06:56;13.10;;;10.77;;
2992;SDS011;1506;48.932;9.478;2023-02-28T11:09:35;14.20;;;9.43;;
2992;SDS011;1506;48.932;9.478;2023-02-28T11:12:07;15.00;;;6.80;;
2992;SDS011;1506;48.932;9.478;2023-02-28T11:14:47;10.20;;;7.17;;
2992;SDS011;1506;48.932;9.478;2023-02-28T11:17:22;13.03;;;8.57;;
2992;SDS011;1506;48.932;9.478;2023-02-28T11:19:55;10.37;;;8.87;;
2992;SDS011;1506;48.932;9.478;2023-02-28T11:22:30;6.67;;;5.90;;
2992;SDS011;1506;48.932;9.478;2023-02-28T11:25:00;10.13;;;9.13;;
2992;SDS011;1506;48.932;9.478;2023-02-28T11:30:46;10.73;;;8.40;;
2992;SDS011;1506;48.932;9.478;2023-02-28T11:35:56;12.30;;;9.40;;
2992;SDS011;1506;48.932;9.478;2023-02-28T11:38:34;9.80;;;8.47;;
2992;SDS011;1506;48.932;9.478;2023-02-28T11:49:22;12.67;;;7.97;;
2992;SDS011;1506;48.932;9.478;2023-02-28T11:52:05;15.13;;;6.60;;
2992;SDS011;1506;48.932;9.478;2023-02-28T11:55:06;11.80;;;8.20;;
2992;SDS011;1506;48.932;9.478;2023-02-28T12:03:44;8.40;;;7.60;;
2992;SDS011;1506;48.932;9.478;2023-02-28T12:06:20;11.43;;;8.23;;
2992;SDS011;1506;48.932;9.478;2023-02-28T12:09:13;9.23;;;8.33;;
2992;SDS011;1506;48.932;9.478;2023-02-28T12:14:45;11.17;;;7.93;;
2992;SDS011;1506;48.932;9.478;2023-02-28T12:22:30;8.50;;;7.70;;
2992;SDS011;1506;48.932;9.478;2023-02-28T12:25:03;9.13;;;6.47;;
2992;SDS011;1506;48.932;9.478;2023-02-28T12:27:47;9.80;;;8.80;;
2992;SDS011;1506;48.932;9.478;2023-02-28T12:30:19;16.00;;;9.60;;
2992;SDS011;1506;48.932;9.478;2023-02-28T12:32:52;10.47;;;7.60;;
2992;SDS011;1506;48.932;9.478;2023-02-28T12:35:31;13.40;;;8.40;;
2992;SDS011;1506;48.932;9.478;2023-02-28T12:38:05;15.40;;;10.43;;
2992;SDS011;1506;48.932;9.478;2023-02-28T12:40:48;11.37;;;7.87;;
2992;SDS011;1506;48.932;9.478;2023-02-28T12:43:36;12.23;;;9.03;;
2992;SDS011;1506;48.932;9.478;2023-02-28T12:51:08;15.83;;;9.40;;
2992;SDS011;1506;48.932;9.478;2023-02-28T12:56:46;9.40;;;8.50;;
2992;SDS011;1506;48.932;9.478;2023-02-28T12:59:18;13.27;;;10.13;;
2992;SDS011;1506;48.932;9.478;2023-02-28T13:02:27;11.37;;;9.00;;
2992;SDS011;1506;48.932;9.478;2023-02-28T13:05:12;10.93;;;8.07;;
2992;SDS011;1506;48.932;9.478;2023-02-28T13:07:51;9.43;;;8.40;;
2992;SDS011;1506;48.932;9.478;2023-02-28T13:10:45;10.90;;;8.30;;
2992;SDS011;1506;48.932;9.478;2023-02-28T13:13:17;9.03;;;8.10;;
2992;SDS011;1506;48.932;9.478;2023-02-28T13:15:57;10.60;;;9.50;;
2992;SDS011;1506;48.932;9.478;2023-02-28T13:18:39;9.73;;;8.83;;
2992;SDS011;1506;48.932;9.478;2023-02-28T13:21:21;9.13;;;8.37;;
2992;SDS011;1506;48.932;9.478;2023-02-28T13:26:22;13.07;;;9.20;;
2992;SDS011;1506;48.932;9.478;2023-02-28T13:29:00;11.43;;;9.00;;
2992;SDS011;1506;48.932;9.478;2023-02-28T13:31:50;10.33;;;8.70;;
2992;SDS011;1506;48.932;9.478;2023-02-28T13:39:53;8.80;;;7.87;;
2992;SDS011;1506;48.932;9.478;2023-02-28T13:42:52;13.17;;;8.70;;
2992;SDS011;1506;48.932;9.478;2023-02-28T13:45:24;13.33;;;10.00;;
2992;SDS011;1506;48.932;9.478;2023-02-28T13:50:30;11.80;;;8.37;;
2992;SDS011;1506;48.932;9.478;2023-02-28T13:58:35;11.43;;;8.00;;
2992;SDS011;1506;48.932;9.478;2023-02-28T14:04:21;11.60;;;9.07;;
2992;SDS011;1506;48.932;9.478;2023-02-28T14:07:29;12.70;;;9.30;;
2992;SDS011;1506;48.932;9.478;2023-02-28T14:10:03;11.20;;;10.00;;
2992;SDS011;1506;48.932;9.478;2023-02-28T14:15:54;13.73;;;9.57;;
2992;SDS011;1506;48.932;9.478;2023-02-28T14:18:40;12.30;;;9.83;;
2992;SDS011;1506;48.932;9.478;2023-02-28T14:21:10;14.20;;;10.47;;
2992;SDS011;1506;48.932;9.478;2023-02-28T14:29:58;14.23;;;10.63;;
2992;SDS011;1506;48.932;9.478;2023-02-28T14:35:27;10.80;;;9.40;;
2992;SDS011;1506;48.932;9.478;2023-02-28T14:38:20;10.80;;;9.70;;
2992;SDS011;1506;48.932;9.478;2023-02-28T14:40:52;11.50;;;10.00;;
2992;SDS011;1506;48.932;9.478;2023-02-28T14:43:25;13.77;;;8.57;;
2992;SDS011;1506;48.932;9.478;2023-02-28T14:45:54;13.80;;;9.27;;
2992;SDS011;1506;48.932;9.478;2023-02-28T14:48:23;12.77;;;9.00;;
2992;SDS011;1506;48.932;9.478;2023-02-28T14:50:53;11.60;;;9.97;;
2992;SDS011;1506;48.932;9.478;2023-02-28T14:53:23;19.43;;;9.20;;
2992;SDS011;1506;48.932;9.478;2023-02-28T14:55:52;14.40;;;8.03;;
2992;SDS011;1506;48.932;9.478;2023-02-28T14:58:27;10.60;;;9.10;;
2992;SDS011;1506;48.932;9.478;2023-02-28T15:00:57;10.70;;;9.10;;
2992;SDS011;1506;48.932;9.478;2023-02-28T15:05:58;11.07;;;8.83;;
2992;SDS011;1506;48.932;9.478;2023-02-28T15:08:30;10.47;;;9.30;;
2992;SDS011;1506;48.932;9.478;2023-02-28T15:11:02;10.83;;;9.43;;
2992;SDS011;1506;48.932;9.478;2023-02-28T15:16:03;13.80;;;9.93;;
2992;SDS011;1506;48.932;9.478;2023-02-28T15:18:53;11.03;;;8.30;;
2992;SDS011;1506;48.932;9.478;2023-02-28T15:21:38;12.30;;;9.60;;
2992;SDS011;1506;48.932;9.478;2023-02-28T15:24:11;9.83;;;8.37;;
2992;SDS011;1506;48.932;9.478;2023-02-28T15:27:00;10.60;;;9.40;;
2992;SDS011;1506;48.932;9.478;2023-02-28T15:29:37;12.30;;;10.07;;
2992;SDS011;1506;48.932;9.478;2023-02-28T15:32:20;22.43;;;8.97;;
2992;SDS011;1506;48.932;9.478;2023-02-28T15:34:56;11.43;;;9.70;;
2992;SDS011;1506;48.932;9.478;2023-02-28T15:37:28;11.43;;;9.40;;
2992;SDS011;1506;48.932;9.478;2023-02-28T15:40:04;15.27;;;9.37;;
2992;SDS011;1506;48.932;9.478;2023-02-28T15:42:40;9.80;;;8.80;;
2992;SDS011;1506;48.932;9.478;2023-02-28T15:45:29;13.53;;;9.47;;
2992;SDS011;1506;48.932;9.478;2023-02-28T15:48:13;17.97;;;9.20;;
2992;SDS011;1506;48.932;9.478;2023-02-28T15:50:51;7.97;;;7.17;;
2992;SDS011;1506;48.932;9.478;2023-02-28T15:53:22;13.77;;;8.97;;
2992;SDS011;1506;48.932;9.478;2023-02-28T15:55:53;14.17;;;9.40;;
2992;SDS011;1506;48.932;9.478;2023-02-28T15:58:23;11.30;;;8.93;;
2992;SDS011;1506;48.932;9.478;2023-02-28T16:01:08;27.23;;;11.40;;
2992;SDS011;1506;48.932;9.478;2023-02-28T16:03:49;10.13;;;9.07;;
2992;SDS011;1506;48.932;9.478;2023-02-28T16:06:30;12.83;;;9.50;;
2992;SDS011;1506;48.932;9.478;2023-02-28T16:09:01;13.67;;;9.27;;
2992;SDS011;1506;48.932;9.478;2023-02-28T16:11:29;14.67;;;9.13;;
2992;SDS011;1506;48.932;9.478;2023-02-28T16:13:58;17.40;;;10.53;;
2992;SDS011;1506;48.932;9.478;2023-02-28T16:16:25;14.43;;;9.00;;
2992;SDS011;1506;48.932;9.478;2023-02-28T16:18:53;13.13;;;9.50;;
2992;SDS011;1506;48.932;9.478;2023-02-28T16:21:21;10.03;;;9.03;;
2992;SDS011;1506;48.932;9.478;2023-02-28T16:23:48;14.20;;;10.00;;
2992;SDS011;1506;48.932;9.478;2023-02-28T16:26:22;12.33;;;9.70;;
2992;SDS011;1506;48.932;9.478;2023-02-28T16:28:51;12.87;;;9.53;;
2992;SDS011;1506;48.932;9.478;2023-02-28T16:31:18;11.63;;;9.00;;
2992;SDS011;1506;48.932;9.478;2023-02-28T16:33:46;9.80;;;8.67;;
2992;SDS011;1506;48.932;9.478;2023-02-28T16:36:17;14.57;;;10.87;;
2992;SDS011;1506;48.932;9.478;2023-02-28T16:38:46;11.23;;;9.00;;
2992;SDS011;1506;48.932;9.478;2023-02-28T16:41:20;14.03;;;9.20;;
2992;SDS011;1506;48.932;9.478;2023-02-28T16:43:51;16.13;;;10.10;;
2992;SDS011;1506;48.932;9.478;2023-02-28T16:46:20;13.57;;;9.70;;
2992;SDS011;1506;48.932;9.478;2023-02-28T16:48:47;11.10;;;9.23;;
2992;SDS011;1506;48.932;9.478;2023-02-28T16:51:17;13.43;;;10.53;;
2992;SDS011;1506;48.932;9.478;2023-02-28T16:53:45;12.30;;;9.10;;
2992;SDS011;1506;48.932;9.478;2023-02-28T16:56:14;13.33;;;10.17;;
2992;SDS011;1506;48.932;9.478;2023-02-28T16:58:46;8.90;;;8.00;;
2992;SDS011;1506;48.932;9.478;2023-02-28T17:01:15;14.23;;;8.13;;
2992;SDS011;1506;48.932;9.478;2023-02-28T17:03:48;13.07;;;8.73;;
2992;SDS011;1506;48.932;9.478;2023-02-28T17:06:17;12.83;;;9.80;;
2992;SDS011;1506;48.932;9.478;2023-02-28T17:08:46;18.43;;;9.87;;
2992;SDS011;1506;48.932;9.478;2023-02-28T17:11:14;9.70;;;8.70;;
2992;SDS011;1506;48.932;9.478;2023-02-28T17:13:42;11.90;;;9.00;;
2992;SDS011;1506;48.932;9.478;2023-02-28T17:16:26;13.03;;;8.40;;
2992;SDS011;1506;48.932;9.478;2023-02-28T17:19:03;11.50;;;8.60;;
2992;SDS011;1506;48.932;9.478;2023-02-28T17:21:32;20.37;;;9.90;;
2992;SDS011;1506;48.932;9.478;2023-02-28T17:24:00;12.70;;;9.10;;
2992;SDS011;1506;48.932;9.478;2023-02-28T17:26:28;12.50;;;8.20;;
2992;SDS011;1506;48.932;9.478;2023-02-28T17:28:56;12.30;;;9.20;;
2992;SDS011;1506;48.932;9.478;2023-02-28T17:31:24;14.97;;;9.70;;
2992;SDS011;1506;48.932;9.478;2023-02-28T17:33:52;12.70;;;9.93;;
2992;SDS011;1506;48.932;9.478;2023-02-28T17:36:23;15.87;;;11.13;;
2992;SDS011;1506;48.932;9.478;2023-02-28T17:38:52;11.17;;;9.10;;
2992;SDS011;1506;48.932;9.478;2023-02-28T17:41:21;20.47;;;12.30;;
2992;SDS011;1506;48.932;9.478;2023-02-28T17:43:48;13.13;;;10.10;;
2992;SDS011;1506;48.932;9.478;2023-02-28T17:46:17;22.57;;;10.20;;
2992;SDS011;1506;48.932;9.478;2023-02-28T17:48:50;26.40;;;12.20;;
2992;SDS011;1506;48.932;9.478;2023-02-28T17:51:22;21.43;;;11.07;;